Sibirskiy-2116 — UBXE3 — position and weather

sailwx.info

Track history (hours):
 
Tides and Currents Weather Stations Pressure Air Temp Water Temp Dewpoint Dewpoint Depression Visibility Wind Speed Wind Dir Waves Ship Positions

Sibirskiy-2116

Last reported at 2015-Mar-02 18:14 UTC. Time now 2015-Mar-06 06:01 UTC.
Position N 41°30' E 029°35'.

Length 129 m; draft 2.6 m.

Type: Cargo ship. MMSI: 273347320.

Date/timePositionNaut miles runAvg speedWind from/ knotsBaromVisibWave heightAir tempDewpointWater temp
2015-Mar-02 18:14N 41°30' E 029°35'6 8.5
2015-Mar-02 17:33N 41°26' E 029°29'9 8.0
2015-Mar-02 16:27N 41°21' E 029°20'7 8.0
2015-Mar-02 15:33N 41°16' E 029°12'  
2015-Feb-26 15:05N 40°25' E 029°05'0 0.0
2015-Feb-26 13:23N 40°25' E 029°05'0 0.0
2015-Feb-26 10:29N 40°25' E 029°05'0 0.0
2015-Feb-26 09:05N 40°25' E 029°05'0 0.0
2015-Feb-26 05:05N 40°25' E 029°05'0 0.0
2015-Feb-26 00:05N 40°25' E 029°05'1 0.2
2015-Feb-25 15:30N 40°26' E 029°06'3 0.1
2015-Feb-24 09:33N 40°26' E 029°03'13 5.7
2015-Feb-24 07:16N 40°29' E 028°46'5 5.5
2015-Feb-24 06:23N 40°34' E 028°44'6 7.0
2015-Feb-24 05:31N 40°39' E 028°47'7 7.1
2015-Feb-24 04:29N 40°46' E 028°50'6 6.7
2015-Feb-24 03:33N 40°52' E 028°55'7 7.2
2015-Feb-24 02:32N 40°58' E 028°59'11 7.9
2015-Feb-24 01:08N 41°09' E 029°04'9 0.3
2015-Feb-22 15:08N 41°18' E 029°02'4 7.3
2015-Feb-22 14:32N 41°21' E 029°07'7 7.2
2015-Feb-22 13:33N 41°25' E 029°15'7 7.3
2015-Feb-22 12:34N 41°29' E 029°23'8 7.8
2015-Feb-22 11:33N 41°33' E 029°31'7 7.2
2015-Feb-22 10:33N 41°38' E 029°39'255 7.1
2015-Feb-20 22:33N 44°05' E 034°23'8 7.9
2015-Feb-20 21:34N 44°09' E 034°33'8 8.0
2015-Feb-20 20:32N 44°13' E 034°42'  
Track history (hours):
 
Tides and Currents Weather Stations Pressure Air Temp Water Temp Dewpoint Dewpoint Depression Visibility Wind Speed Wind Dir Waves Ship Positions

Sibirskiy-2116

Last reported at 2015-Mar-02 18:14 UTC. Time now 2015-Mar-06 06:01 UTC.
Position N 41°30' E 029°35'.

Length 129 m; draft 2.6 m.

Type: Cargo ship. MMSI: 273347320.

Date/timePositionNaut miles runAvg speedWind from/ knotsBaromVisibWave heightAir tempDewpointWater temp
2015-Mar-02 18:14N 41°30' E 029°35'6 8.5
2015-Mar-02 17:33N 41°26' E 029°29'9 8.0
2015-Mar-02 16:27N 41°21' E 029°20'7 8.0
2015-Mar-02 15:33N 41°16' E 029°12'  
2015-Feb-26 15:05N 40°25' E 029°05'0 0.0
2015-Feb-26 13:23N 40°25' E 029°05'0 0.0
2015-Feb-26 10:29N 40°25' E 029°05'0 0.0
2015-Feb-26 09:05N 40°25' E 029°05'0 0.0
2015-Feb-26 05:05N 40°25' E 029°05'0 0.0
2015-Feb-26 00:05N 40°25' E 029°05'1 0.2
2015-Feb-25 15:30N 40°26' E 029°06'3 0.1
2015-Feb-24 09:33N 40°26' E 029°03'13 5.7
2015-Feb-24 07:16N 40°29' E 028°46'5 5.5
2015-Feb-24 06:23N 40°34' E 028°44'6 7.0
2015-Feb-24 05:31N 40°39' E 028°47'7 7.1
2015-Feb-24 04:29N 40°46' E 028°50'6 6.7
2015-Feb-24 03:33N 40°52' E 028°55'7 7.2
2015-Feb-24 02:32N 40°58' E 028°59'11 7.9
2015-Feb-24 01:08N 41°09' E 029°04'9 0.3
2015-Feb-22 15:08N 41°18' E 029°02'4 7.3
2015-Feb-22 14:32N 41°21' E 029°07'7 7.2
2015-Feb-22 13:33N 41°25' E 029°15'7 7.3
2015-Feb-22 12:34N 41°29' E 029°23'8 7.8
2015-Feb-22 11:33N 41°33' E 029°31'7 7.2
2015-Feb-22 10:33N 41°38' E 029°39'255 7.1
2015-Feb-20 22:33N 44°05' E 034°23'8 7.9
2015-Feb-20 21:34N 44°09' E 034°33'8 8.0
2015-Feb-20 20:32N 44°13' E 034°42'  

Dump ship's entire track history